sensor_id;sensor_type;location;lat;lon;timestamp;temperature;humidity
74484;SHT31;62942;52.462;10.846;2022-08-19T00:00:12;20.2;87.1
74484;SHT31;62942;52.462;10.846;2022-08-19T00:01:12;20.3;87.3
74484;SHT31;62942;52.462;10.846;2022-08-19T00:02:12;20.2;87.2
74484;SHT31;62942;52.462;10.846;2022-08-19T00:03:12;20.2;87.3
74484;SHT31;62942;52.462;10.846;2022-08-19T00:04:13;20.2;87.2
74484;SHT31;62942;52.462;10.846;2022-08-19T00:05:13;20.2;87.2
74484;SHT31;62942;52.462;10.846;2022-08-19T00:06:12;20.2;87.1
74484;SHT31;62942;52.462;10.846;2022-08-19T00:07:22;20.2;87.1
74484;SHT31;62942;52.462;10.846;2022-08-19T00:08:32;20.2;87.1
74484;SHT31;62942;52.462;10.846;2022-08-19T00:09:42;20.2;87
74484;SHT31;62942;52.462;10.846;2022-08-19T00:10:52;20.2;87
74484;SHT31;62942;52.462;10.846;2022-08-19T00:11:52;20.2;87
74484;SHT31;62942;52.462;10.846;2022-08-19T00:13:02;20.2;87
74484;SHT31;62942;52.462;10.846;2022-08-19T00:14:13;20.2;87
74484;SHT31;62942;52.462;10.846;2022-08-19T00:15:13;20.2;87.2
74484;SHT31;62942;52.462;10.846;2022-08-19T00:16:22;20.1;87.1
74484;SHT31;62942;52.462;10.846;2022-08-19T00:17:22;20.1;87
74484;SHT31;62942;52.462;10.846;2022-08-19T00:18:32;20.1;87.3
74484;SHT31;62942;52.462;10.846;2022-08-19T00:19:32;20.1;87.4
74484;SHT31;62942;52.462;10.846;2022-08-19T00:20:32;20.1;87.2
74484;SHT31;62942;52.462;10.846;2022-08-19T00:21:42;20.1;87.7
74484;SHT31;62942;52.462;10.846;2022-08-19T00:22:52;20.1;87.3
74484;SHT31;62942;52.462;10.846;2022-08-19T00:23:52;20;87.3
74484;SHT31;62942;52.462;10.846;2022-08-19T00:25:02;20.1;87.7
74484;SHT31;62942;52.462;10.846;2022-08-19T00:26:02;20;87.7
74484;SHT31;62942;52.462;10.846;2022-08-19T00:27:12;20;87.9
74484;SHT31;62942;52.462;10.846;2022-08-19T00:28:22;20.1;87.6
74484;SHT31;62942;52.462;10.846;2022-08-19T00:29:22;20;87.6
74484;SHT31;62942;52.462;10.846;2022-08-19T00:30:22;20;87.8
74484;SHT31;62942;52.462;10.846;2022-08-19T00:31:32;20;87.8
74484;SHT31;62942;52.462;10.846;2022-08-19T00:32:42;20;87.8
74484;SHT31;62942;52.462;10.846;2022-08-19T00:33:42;20;87.8
74484;SHT31;62942;52.462;10.846;2022-08-19T00:34:52;20;87.8
74484;SHT31;62942;52.462;10.846;2022-08-19T00:35:52;20;87.9
74484;SHT31;62942;52.462;10.846;2022-08-19T00:37:02;20;88.2
74484;SHT31;62942;52.462;10.846;2022-08-19T00:38:12;20;88.1
74484;SHT31;62942;52.462;10.846;2022-08-19T00:39:22;20;87.9
74484;SHT31;62942;52.462;10.846;2022-08-19T00:40:22;20;87.9
74484;SHT31;62942;52.462;10.846;2022-08-19T00:41:32;20;87.9
74484;SHT31;62942;52.462;10.846;2022-08-19T00:42:32;20;87.9
74484;SHT31;62942;52.462;10.846;2022-08-19T00:43:42;20;87.9
74484;SHT31;62942;52.462;10.846;2022-08-19T00:44:52;20;87.9
74484;SHT31;62942;52.462;10.846;2022-08-19T00:45:52;20;87.8
74484;SHT31;62942;52.462;10.846;2022-08-19T00:47:02;20;87.8
74484;SHT31;62942;52.462;10.846;2022-08-19T00:48:12;20.1;88
74484;SHT31;62942;52.462;10.846;2022-08-19T00:49:14;20;87.9
74484;SHT31;62942;52.462;10.846;2022-08-19T00:50:12;20;88
74484;SHT31;62942;52.462;10.846;2022-08-19T00:51:12;20;88
74484;SHT31;62942;52.462;10.846;2022-08-19T00:52:13;20;87.9
74484;SHT31;62942;52.462;10.846;2022-08-19T00:53:22;20;87.9
74484;SHT31;62942;52.462;10.846;2022-08-19T00:54:22;20;88
74484;SHT31;62942;52.462;10.846;2022-08-19T00:55:32;20;88
74484;SHT31;62942;52.462;10.846;2022-08-19T00:56:42;20;88
74484;SHT31;62942;52.462;10.846;2022-08-19T00:57:43;19.9;88
74484;SHT31;62942;52.462;10.846;2022-08-19T00:58:42;19.9;88.1
74484;SHT31;62942;52.462;10.846;2022-08-19T00:59:52;19.9;88.1
74484;SHT31;62942;52.462;10.846;2022-08-19T01:01:03;19.9;88.1
74484;SHT31;62942;52.462;10.846;2022-08-19T01:02:12;19.9;88.3
74484;SHT31;62942;52.462;10.846;2022-08-19T01:03:22;19.9;88.3
74484;SHT31;62942;52.462;10.846;2022-08-19T01:04:22;19.9;88.4
74484;SHT31;62942;52.462;10.846;2022-08-19T01:05:32;19.9;88.5
74484;SHT31;62942;52.462;10.846;2022-08-19T01:06:42;19.9;88.5
74484;SHT31;62942;52.462;10.846;2022-08-19T01:07:42;19.8;88.4
74484;SHT31;62942;52.462;10.846;2022-08-19T01:08:53;19.8;88.4
74484;SHT31;62942;52.462;10.846;2022-08-19T01:10:03;19.8;88.3
74484;SHT31;62942;52.462;10.846;2022-08-19T01:11:02;19.8;88.5
74484;SHT31;62942;52.462;10.846;2022-08-19T01:12:02;19.8;88.5
74484;SHT31;62942;52.462;10.846;2022-08-19T01:13:13;19.8;88.4
74484;SHT31;62942;52.462;10.846;2022-08-19T01:14:22;19.8;88.5
74484;SHT31;62942;52.462;10.846;2022-08-19T01:15:23;19.8;88.5
74484;SHT31;62942;52.462;10.846;2022-08-19T01:16:32;19.8;88.5
74484;SHT31;62942;52.462;10.846;2022-08-19T01:17:42;19.7;88.5
74484;SHT31;62942;52.462;10.846;2022-08-19T01:18:52;19.7;88.5
74484;SHT31;62942;52.462;10.846;2022-08-19T01:20:03;19.7;88.4
74484;SHT31;62942;52.462;10.846;2022-08-19T01:21:13;19.7;88.4
74484;SHT31;62942;52.462;10.846;2022-08-19T01:22:14;19.7;88.4
74484;SHT31;62942;52.462;10.846;2022-08-19T01:23:22;19.7;88.6
74484;SHT31;62942;52.462;10.846;2022-08-19T01:24:22;19.7;88.5
74484;SHT31;62942;52.462;10.846;2022-08-19T01:25:24;19.7;88.5
74484;SHT31;62942;52.462;10.846;2022-08-19T01:26:37;19.7;88.6
74484;SHT31;62942;52.462;10.846;2022-08-19T01:27:43;19.7;88.6
74484;SHT31;62942;52.462;10.846;2022-08-19T01:28:42;19.7;88.5
74484;SHT31;62942;52.462;10.846;2022-08-19T01:29:52;19.7;88.4
74484;SHT31;62942;52.462;10.846;2022-08-19T01:31:02;19.6;88.5
74484;SHT31;62942;52.462;10.846;2022-08-19T01:32:12;19.6;88.5
74484;SHT31;62942;52.462;10.846;2022-08-19T01:33:22;19.6;88.5
74484;SHT31;62942;52.462;10.846;2022-08-19T01:34:32;19.6;88.6
74484;SHT31;62942;52.462;10.846;2022-08-19T01:35:42;19.6;88.6
74484;SHT31;62942;52.462;10.846;2022-08-19T01:36:52;19.6;88.7
74484;SHT31;62942;52.462;10.846;2022-08-19T01:38:03;19.6;88.7
74484;SHT31;62942;52.462;10.846;2022-08-19T01:39:13;19.6;88.8
74484;SHT31;62942;52.462;10.846;2022-08-19T01:40:24;19.6;88.8
74484;SHT31;62942;52.462;10.846;2022-08-19T01:41:32;19.5;88.9
74484;SHT31;62942;52.462;10.846;2022-08-19T01:42:32;19.5;89
74484;SHT31;62942;52.462;10.846;2022-08-19T01:43:32;19.5;89.1
74484;SHT31;62942;52.462;10.846;2022-08-19T01:44:32;19.5;89.1
74484;SHT31;62942;52.462;10.846;2022-08-19T01:45:42;19.5;89.3
74484;SHT31;62942;52.462;10.846;2022-08-19T01:46:42;19.5;89.5
74484;SHT31;62942;52.462;10.846;2022-08-19T01:47:42;19.5;89.4
74484;SHT31;62942;52.462;10.846;2022-08-19T01:48:52;19.5;89.2
74484;SHT31;62942;52.462;10.846;2022-08-19T01:49:52;19.5;89.6
74484;SHT31;62942;52.462;10.846;2022-08-19T01:51:02;19.4;89.7
74484;SHT31;62942;52.462;10.846;2022-08-19T01:52:12;19.5;89.6
74484;SHT31;62942;52.462;10.846;2022-08-19T01:53:22;19.4;89.5
74484;SHT31;62942;52.462;10.846;2022-08-19T01:54:22;19.4;89.6
74484;SHT31;62942;52.462;10.846;2022-08-19T01:55:32;19.4;89.5
74484;SHT31;62942;52.462;10.846;2022-08-19T01:56:42;19.4;89.6
74484;SHT31;62942;52.462;10.846;2022-08-19T01:57:42;19.4;89.7
74484;SHT31;62942;52.462;10.846;2022-08-19T01:58:43;19.4;89.9
74484;SHT31;62942;52.462;10.846;2022-08-19T01:59:52;19.4;89.9
74484;SHT31;62942;52.462;10.846;2022-08-19T02:00:52;19.4;89.8
74484;SHT31;62942;52.462;10.846;2022-08-19T02:01:52;19.4;89.9
74484;SHT31;62942;52.462;10.846;2022-08-19T02:03:02;19.4;89.9
74484;SHT31;62942;52.462;10.846;2022-08-19T02:04:12;19.3;89.8
74484;SHT31;62942;52.462;10.846;2022-08-19T02:05:12;19.4;89.9
74484;SHT31;62942;52.462;10.846;2022-08-19T02:06:12;19.3;89.9
74484;SHT31;62942;52.462;10.846;2022-08-19T02:07:22;19.3;90.2
74484;SHT31;62942;52.462;10.846;2022-08-19T02:08:34;19.3;90.5
74484;SHT31;62942;52.462;10.846;2022-08-19T02:09:42;19.3;90.1
74484;SHT31;62942;52.462;10.846;2022-08-19T02:10:52;19.3;90.2
74484;SHT31;62942;52.462;10.846;2022-08-19T02:12:02;19.3;90.2
74484;SHT31;62942;52.462;10.846;2022-08-19T02:13:12;19.3;90.4
74484;SHT31;62942;52.462;10.846;2022-08-19T02:14:22;19.3;90.3
74484;SHT31;62942;52.462;10.846;2022-08-19T02:15:32;19.3;90.2
74484;SHT31;62942;52.462;10.846;2022-08-19T02:16:42;19.3;90.3
74484;SHT31;62942;52.462;10.846;2022-08-19T02:17:52;19.3;90.3
74484;SHT31;62942;52.462;10.846;2022-08-19T02:19:02;19.2;90.3
74484;SHT31;62942;52.462;10.846;2022-08-19T02:20:02;19.3;90.2
74484;SHT31;62942;52.462;10.846;2022-08-19T02:21:12;19.2;90.3
74484;SHT31;62942;52.462;10.846;2022-08-19T02:22:22;19.2;90.5
74484;SHT31;62942;52.462;10.846;2022-08-19T02:23:22;19.3;90.5
74484;SHT31;62942;52.462;10.846;2022-08-19T02:24:32;19.2;90.3
74484;SHT31;62942;52.462;10.846;2022-08-19T02:25:42;19.2;90.5
74484;SHT31;62942;52.462;10.846;2022-08-19T02:26:42;19.2;90.3
74484;SHT31;62942;52.462;10.846;2022-08-19T02:27:52;19.2;90.4
74484;SHT31;62942;52.462;10.846;2022-08-19T02:29:02;19.2;90.4
74484;SHT31;62942;52.462;10.846;2022-08-19T02:30:02;19.2;90.2
74484;SHT31;62942;52.462;10.846;2022-08-19T02:31:13;19.2;90.3
74484;SHT31;62942;52.462;10.846;2022-08-19T02:32:22;19.2;90.5
74484;SHT31;62942;52.462;10.846;2022-08-19T02:33:32;19.2;90.3
74484;SHT31;62942;52.462;10.846;2022-08-19T02:34:32;19.1;90.3
74484;SHT31;62942;52.462;10.846;2022-08-19T02:35:32;19.2;90.4
74484;SHT31;62942;52.462;10.846;2022-08-19T02:36:42;19.2;90.5
74484;SHT31;62942;52.462;10.846;2022-08-19T02:37:42;19.1;90.5
74484;SHT31;62942;52.462;10.846;2022-08-19T02:38:52;19.1;90.6
74484;SHT31;62942;52.462;10.846;2022-08-19T02:39:52;19.1;90.5
74484;SHT31;62942;52.462;10.846;2022-08-19T02:41:02;19.1;90.6
74484;SHT31;62942;52.462;10.846;2022-08-19T02:42:12;19.1;90.6
74484;SHT31;62942;52.462;10.846;2022-08-19T02:43:12;19.1;90.8
74484;SHT31;62942;52.462;10.846;2022-08-19T02:44:22;19.1;90.8
74484;SHT31;62942;52.462;10.846;2022-08-19T02:45:32;19.1;90.8
74484;SHT31;62942;52.462;10.846;2022-08-19T02:46:32;19.1;91.1
74484;SHT31;62942;52.462;10.846;2022-08-19T02:47:32;19.1;91.3
74484;SHT31;62942;52.462;10.846;2022-08-19T02:48:42;19;91.2
74484;SHT31;62942;52.462;10.846;2022-08-19T02:49:52;19;91.2
74484;SHT31;62942;52.462;10.846;2022-08-19T02:50:52;19;91.2
74484;SHT31;62942;52.462;10.846;2022-08-19T02:52:02;19;91.3
74484;SHT31;62942;52.462;10.846;2022-08-19T02:53:12;19;91.2
74484;SHT31;62942;52.462;10.846;2022-08-19T02:54:22;19;91.2
74484;SHT31;62942;52.462;10.846;2022-08-19T02:55:32;19;91.4
74484;SHT31;62942;52.462;10.846;2022-08-19T02:56:33;19;91.3
74484;SHT31;62942;52.462;10.846;2022-08-19T02:57:42;19;91.2
74484;SHT31;62942;52.462;10.846;2022-08-19T02:58:42;18.9;91.2
74484;SHT31;62942;52.462;10.846;2022-08-19T02:59:52;19;91.2
74484;SHT31;62942;52.462;10.846;2022-08-19T03:00:52;18.9;91.2
74484;SHT31;62942;52.462;10.846;2022-08-19T03:02:02;18.9;91.1
74484;SHT31;62942;52.462;10.846;2022-08-19T03:03:02;18.9;91.2
74484;SHT31;62942;52.462;10.846;2022-08-19T03:04:13;18.9;91.2
74484;SHT31;62942;52.462;10.846;2022-08-19T03:05:12;18.9;91.1
74484;SHT31;62942;52.462;10.846;2022-08-19T03:06:22;18.9;90.9
74484;SHT31;62942;52.462;10.846;2022-08-19T03:07:32;18.9;90.9
74484;SHT31;62942;52.462;10.846;2022-08-19T03:08:43;18.8;90.9
74484;SHT31;62942;52.462;10.846;2022-08-19T03:09:52;18.8;90.9
74484;SHT31;62942;52.462;10.846;2022-08-19T03:10:52;18.8;90.9
74484;SHT31;62942;52.462;10.846;2022-08-19T03:12:02;18.8;90.7
74484;SHT31;62942;52.462;10.846;2022-08-19T03:13:02;18.8;90.8
74484;SHT31;62942;52.462;10.846;2022-08-19T03:14:12;18.8;90.7
74484;SHT31;62942;52.462;10.846;2022-08-19T03:15:22;18.8;90.7
74484;SHT31;62942;52.462;10.846;2022-08-19T03:16:33;18.8;90.7
74484;SHT31;62942;52.462;10.846;2022-08-19T03:17:42;18.7;90.6
74484;SHT31;62942;52.462;10.846;2022-08-19T03:18:52;18.7;90.6
74484;SHT31;62942;52.462;10.846;2022-08-19T03:20:02;18.7;90.6
74484;SHT31;62942;52.462;10.846;2022-08-19T03:21:02;18.7;90.6
74484;SHT31;62942;52.462;10.846;2022-08-19T03:22:12;18.7;90.6
74484;SHT31;62942;52.462;10.846;2022-08-19T03:23:12;18.7;90.5
74484;SHT31;62942;52.462;10.846;2022-08-19T03:24:22;18.7;90.6
74484;SHT31;62942;52.462;10.846;2022-08-19T03:25:22;18.7;90.6
74484;SHT31;62942;52.462;10.846;2022-08-19T03:26:32;18.7;90.5
74484;SHT31;62942;52.462;10.846;2022-08-19T03:27:42;18.7;90.5
74484;SHT31;62942;52.462;10.846;2022-08-19T03:28:52;18.6;90.5
74484;SHT31;62942;52.462;10.846;2022-08-19T03:29:52;18.7;90.5
74484;SHT31;62942;52.462;10.846;2022-08-19T03:31:03;18.7;90.5
74484;SHT31;62942;52.462;10.846;2022-08-19T03:32:12;18.6;90.5
74484;SHT31;62942;52.462;10.846;2022-08-19T03:33:22;18.6;90.5
74484;SHT31;62942;52.462;10.846;2022-08-19T03:34:33;18.6;90.5
74484;SHT31;62942;52.462;10.846;2022-08-19T03:35:32;18.6;90.5
74484;SHT31;62942;52.462;10.846;2022-08-19T03:36:42;18.6;90.5
74484;SHT31;62942;52.462;10.846;2022-08-19T03:37:42;18.6;90.5
74484;SHT31;62942;52.462;10.846;2022-08-19T03:38:52;18.6;90.5
74484;SHT31;62942;52.462;10.846;2022-08-19T03:39:52;18.6;90.5
74484;SHT31;62942;52.462;10.846;2022-08-19T03:41:02;18.6;90.5
74484;SHT31;62942;52.462;10.846;2022-08-19T03:42:12;18.5;90.5
74484;SHT31;62942;52.462;10.846;2022-08-19T03:43:22;18.5;90.6
74484;SHT31;62942;52.462;10.846;2022-08-19T03:44:32;18.5;90.7
74484;SHT31;62942;52.462;10.846;2022-08-19T03:45:42;18.5;90.7
74484;SHT31;62942;52.462;10.846;2022-08-19T03:46:56;18.5;90.9
74484;SHT31;62942;52.462;10.846;2022-08-19T03:48:02;18.5;90.8
74484;SHT31;62942;52.462;10.846;2022-08-19T03:49:12;18.5;90.8
74484;SHT31;62942;52.462;10.846;2022-08-19T03:50:22;18.4;91
74484;SHT31;62942;52.462;10.846;2022-08-19T03:51:23;18.4;91
74484;SHT31;62942;52.462;10.846;2022-08-19T03:52:32;18.4;91.3
74484;SHT31;62942;52.462;10.846;2022-08-19T03:53:42;18.4;91.1
74484;SHT31;62942;52.462;10.846;2022-08-19T03:54:52;18.4;91.2
74484;SHT31;62942;52.462;10.846;2022-08-19T03:56:02;18.4;91.1
74484;SHT31;62942;52.462;10.846;2022-08-19T03:57:11;18.4;91.5
74484;SHT31;62942;52.462;10.846;2022-08-19T03:58:22;18.4;91.4
74484;SHT31;62942;52.462;10.846;2022-08-19T03:59:32;18.4;91.3
74484;SHT31;62942;52.462;10.846;2022-08-19T04:00:42;18.3;91.3
74484;SHT31;62942;52.462;10.846;2022-08-19T04:01:52;18.3;91.2
74484;SHT31;62942;52.462;10.846;2022-08-19T04:02:52;18.3;91.3
74484;SHT31;62942;52.462;10.846;2022-08-19T04:04:02;18.3;91.2
74484;SHT31;62942;52.462;10.846;2022-08-19T04:05:02;18.3;91.2
74484;SHT31;62942;52.462;10.846;2022-08-19T04:06:12;18.3;91.3
74484;SHT31;62942;52.462;10.846;2022-08-19T04:07:12;18.3;91.4
74484;SHT31;62942;52.462;10.846;2022-08-19T04:08:22;18.3;91.5
74484;SHT31;62942;52.462;10.846;2022-08-19T04:09:32;18.3;91.4
74484;SHT31;62942;52.462;10.846;2022-08-19T04:10:34;18.2;91.5
74484;SHT31;62942;52.462;10.846;2022-08-19T04:11:43;18.2;91.5
74484;SHT31;62942;52.462;10.846;2022-08-19T04:12:41;18.2;91.5
74484;SHT31;62942;52.462;10.846;2022-08-19T04:13:52;18.2;91.5
74484;SHT31;62942;52.462;10.846;2022-08-19T04:15:02;18.2;91.4
74484;SHT31;62942;52.462;10.846;2022-08-19T04:16:02;18.2;91.4
74484;SHT31;62942;52.462;10.846;2022-08-19T04:17:12;18.2;91.5
74484;SHT31;62942;52.462;10.846;2022-08-19T04:18:12;18.2;91.5
74484;SHT31;62942;52.462;10.846;2022-08-19T04:19:21;18.2;91.7
74484;SHT31;62942;52.462;10.846;2022-08-19T04:20:22;18.2;91.5
74484;SHT31;62942;52.462;10.846;2022-08-19T04:21:32;18.2;91.5
74484;SHT31;62942;52.462;10.846;2022-08-19T04:22:32;18.2;91.4
74484;SHT31;62942;52.462;10.846;2022-08-19T04:23:41;18.2;91.5
74484;SHT31;62942;52.462;10.846;2022-08-19T04:24:42;18.2;91.5
74484;SHT31;62942;52.462;10.846;2022-08-19T04:25:52;18.2;91.6
74484;SHT31;62942;52.462;10.846;2022-08-19T04:26:52;18.1;91.5
74484;SHT31;62942;52.462;10.846;2022-08-19T04:28:02;18.1;91.5
74484;SHT31;62942;52.462;10.846;2022-08-19T04:29:13;18.2;91.5
74484;SHT31;62942;52.462;10.846;2022-08-19T04:30:22;18.1;91.5
74484;SHT31;62942;52.462;10.846;2022-08-19T04:31:23;18.1;91.6
74484;SHT31;62942;52.462;10.846;2022-08-19T04:32:32;18.1;91.5
74484;SHT31;62942;52.462;10.846;2022-08-19T04:33:32;18.1;91.4
74484;SHT31;62942;52.462;10.846;2022-08-19T04:34:42;18.1;91.5
74484;SHT31;62942;52.462;10.846;2022-08-19T04:35:42;18.1;91.6
74484;SHT31;62942;52.462;10.846;2022-08-19T04:36:53;18.1;91.5
74484;SHT31;62942;52.462;10.846;2022-08-19T04:38:02;18.1;91.6
74484;SHT31;62942;52.462;10.846;2022-08-19T04:39:13;18.1;91.5
74484;SHT31;62942;52.462;10.846;2022-08-19T04:40:21;18.1;91.7
74484;SHT31;62942;52.462;10.846;2022-08-19T04:41:32;18.1;91.6
74484;SHT31;62942;52.462;10.846;2022-08-19T04:42:41;18.1;91.6
74484;SHT31;62942;52.462;10.846;2022-08-19T04:43:41;18.1;91.6
74484;SHT31;62942;52.462;10.846;2022-08-19T04:44:51;18.1;91.6
74484;SHT31;62942;52.462;10.846;2022-08-19T04:46:04;18.1;91.4
74484;SHT31;62942;52.462;10.846;2022-08-19T04:47:12;18.1;91.5
74484;SHT31;62942;52.462;10.846;2022-08-19T04:48:22;18.1;91.4
74484;SHT31;62942;52.462;10.846;2022-08-19T04:49:22;18.1;91.3
74484;SHT31;62942;52.462;10.846;2022-08-19T04:50:31;18.1;91.4
74484;SHT31;62942;52.462;10.846;2022-08-19T04:51:32;18.1;91.3
74484;SHT31;62942;52.462;10.846;2022-08-19T04:52:42;18.1;91.3
74484;SHT31;62942;52.462;10.846;2022-08-19T04:53:41;18.1;91.4
74484;SHT31;62942;52.462;10.846;2022-08-19T04:54:52;18.1;91.2
74484;SHT31;62942;52.462;10.846;2022-08-19T04:56:04;18.1;91.2
74484;SHT31;62942;52.462;10.846;2022-08-19T04:57:11;18.1;91.2
74484;SHT31;62942;52.462;10.846;2022-08-19T04:58:22;18.1;91.1
74484;SHT31;62942;52.462;10.846;2022-08-19T04:59:21;18.1;91.1
74484;SHT31;62942;52.462;10.846;2022-08-19T05:00:31;18.1;91.1
74484;SHT31;62942;52.462;10.846;2022-08-19T05:01:32;18.1;91
74484;SHT31;62942;52.462;10.846;2022-08-19T05:02:41;18.1;90.9
74484;SHT31;62942;52.462;10.846;2022-08-19T05:03:41;18.1;90.9
74484;SHT31;62942;52.462;10.846;2022-08-19T05:04:55;18.1;90.9
74484;SHT31;62942;52.462;10.846;2022-08-19T05:05:52;18.1;90.9
74484;SHT31;62942;52.462;10.846;2022-08-19T05:07:01;18.1;90.9
74484;SHT31;62942;52.462;10.846;2022-08-19T05:08:02;18.1;90.9
74484;SHT31;62942;52.462;10.846;2022-08-19T05:09:11;18.1;90.9
74484;SHT31;62942;52.462;10.846;2022-08-19T05:10:11;18.1;90.8
74484;SHT31;62942;52.462;10.846;2022-08-19T05:11:23;18.1;90.8
74484;SHT31;62942;52.462;10.846;2022-08-19T05:12:21;18.1;90.9
74484;SHT31;62942;52.462;10.846;2022-08-19T05:13:31;18.1;90.8
74484;SHT31;62942;52.462;10.846;2022-08-19T05:14:41;18.1;90.6
74484;SHT31;62942;52.462;10.846;2022-08-19T05:15:42;18.1;90.6
74484;SHT31;62942;52.462;10.846;2022-08-19T05:16:51;18.1;90.6
74484;SHT31;62942;52.462;10.846;2022-08-19T05:17:51;18.1;90.5
74484;SHT31;62942;52.462;10.846;2022-08-19T05:19:01;18.1;90.6
74484;SHT31;62942;52.462;10.846;2022-08-19T05:20:02;18.1;90.5
74484;SHT31;62942;52.462;10.846;2022-08-19T05:21:12;18.1;90.6
74484;SHT31;62942;52.462;10.846;2022-08-19T05:22:11;18.1;90.5
74484;SHT31;62942;52.462;10.846;2022-08-19T05:23:21;18.1;90.5
74484;SHT31;62942;52.462;10.846;2022-08-19T05:24:22;18.1;90.4
74484;SHT31;62942;52.462;10.846;2022-08-19T05:25:31;18.1;90.5
74484;SHT31;62942;52.462;10.846;2022-08-19T05:26:31;18.1;90.4
74484;SHT31;62942;52.462;10.846;2022-08-19T05:27:41;18.1;90.4
74484;SHT31;62942;52.462;10.846;2022-08-19T05:28:41;18.1;90.4
74484;SHT31;62942;52.462;10.846;2022-08-19T05:29:51;18;90.3
74484;SHT31;62942;52.462;10.846;2022-08-19T05:31:01;18;90.5
74484;SHT31;62942;52.462;10.846;2022-08-19T05:32:02;18;90.5
74484;SHT31;62942;52.462;10.846;2022-08-19T05:33:11;18;90.4
74484;SHT31;62942;52.462;10.846;2022-08-19T05:34:12;18;90.6
74484;SHT31;62942;52.462;10.846;2022-08-19T05:35:14;18;90.6
74484;SHT31;62942;52.462;10.846;2022-08-19T05:36:21;18;90.5
74484;SHT31;62942;52.462;10.846;2022-08-19T05:37:31;18;90.4
74484;SHT31;62942;52.462;10.846;2022-08-19T05:38:31;18;90.4
74484;SHT31;62942;52.462;10.846;2022-08-19T05:39:41;18.1;90.4
74484;SHT31;62942;52.462;10.846;2022-08-19T05:40:52;18.1;90.3
74484;SHT31;62942;52.462;10.846;2022-08-19T05:41:52;18.1;90.3
74484;SHT31;62942;52.462;10.846;2022-08-19T05:43:02;18.1;90.4
74484;SHT31;62942;52.462;10.846;2022-08-19T05:44:03;18.1;90.4
74484;SHT31;62942;52.462;10.846;2022-08-19T05:45:11;18.1;90.2
74484;SHT31;62942;52.462;10.846;2022-08-19T05:46:15;18.1;90.2
74484;SHT31;62942;52.462;10.846;2022-08-19T05:47:21;18.1;90.1
74484;SHT31;62942;52.462;10.846;2022-08-19T05:48:31;18.1;90.1
74484;SHT31;62942;52.462;10.846;2022-08-19T05:49:32;18.1;90.1
74484;SHT31;62942;52.462;10.846;2022-08-19T05:50:41;18.2;90
74484;SHT31;62942;52.462;10.846;2022-08-19T05:51:52;18.2;89.9
74484;SHT31;62942;52.462;10.846;2022-08-19T05:52:52;18.2;89.7
74484;SHT31;62942;52.462;10.846;2022-08-19T05:53:52;18.2;89.7
74484;SHT31;62942;52.462;10.846;2022-08-19T05:55:01;18.2;89.6
74484;SHT31;62942;52.462;10.846;2022-08-19T05:56:03;18.3;89.6
74484;SHT31;62942;52.462;10.846;2022-08-19T05:57:11;18.3;89.5
74484;SHT31;62942;52.462;10.846;2022-08-19T05:58:21;18.4;89.1
74484;SHT31;62942;52.462;10.846;2022-08-19T05:59:21;18.4;89.2
74484;SHT31;62942;52.462;10.846;2022-08-19T06:00:31;18.4;89.1
74484;SHT31;62942;52.462;10.846;2022-08-19T06:01:31;18.5;88.9
74484;SHT31;62942;52.462;10.846;2022-08-19T06:02:41;18.5;88.8
74484;SHT31;62942;52.462;10.846;2022-08-19T06:03:42;18.5;88.5
74484;SHT31;62942;52.462;10.846;2022-08-19T06:04:51;18.6;88.5
74484;SHT31;62942;52.462;10.846;2022-08-19T06:05:51;18.6;88.6
74484;SHT31;62942;52.462;10.846;2022-08-19T06:07:01;18.7;88.4
74484;SHT31;62942;52.462;10.846;2022-08-19T06:08:01;18.7;87.8
74484;SHT31;62942;52.462;10.846;2022-08-19T06:09:12;18.7;88.1
74484;SHT31;62942;52.462;10.846;2022-08-19T06:10:21;18.7;88.1
74484;SHT31;62942;52.462;10.846;2022-08-19T06:11:23;18.8;87.8
74484;SHT31;62942;52.462;10.846;2022-08-19T06:12:32;18.8;87.6
74484;SHT31;62942;52.462;10.846;2022-08-19T06:13:41;18.8;87.7
74484;SHT31;62942;52.462;10.846;2022-08-19T06:14:51;18.9;87.7
74484;SHT31;62942;52.462;10.846;2022-08-19T06:16:01;18.9;87.5
74484;SHT31;62942;52.462;10.846;2022-08-19T06:17:02;18.9;87.6
74484;SHT31;62942;52.462;10.846;2022-08-19T06:18:12;19;87.3
74484;SHT31;62942;52.462;10.846;2022-08-19T06:19:13;19;87.4
74484;SHT31;62942;52.462;10.846;2022-08-19T06:20:21;19;86.7
74484;SHT31;62942;52.462;10.846;2022-08-19T06:21:31;19;87
74484;SHT31;62942;52.462;10.846;2022-08-19T06:22:42;19;87
74484;SHT31;62942;52.462;10.846;2022-08-19T06:23:51;19;86.9
74484;SHT31;62942;52.462;10.846;2022-08-19T06:25:02;18.9;87
74484;SHT31;62942;52.462;10.846;2022-08-19T06:26:11;19;87.1
74484;SHT31;62942;52.462;10.846;2022-08-19T06:27:11;18.9;87.2
74484;SHT31;62942;52.462;10.846;2022-08-19T06:28:21;19;87
74484;SHT31;62942;52.462;10.846;2022-08-19T06:29:31;19;87.1
74484;SHT31;62942;52.462;10.846;2022-08-19T06:30:31;18.9;86.9
74484;SHT31;62942;52.462;10.846;2022-08-19T06:31:42;19;87.3
74484;SHT31;62942;52.462;10.846;2022-08-19T06:32:41;19;87.1
74484;SHT31;62942;52.462;10.846;2022-08-19T06:33:51;19;87.1
74484;SHT31;62942;52.462;10.846;2022-08-19T06:34:51;19;87.1
74484;SHT31;62942;52.462;10.846;2022-08-19T06:36:01;18.9;87.1
74484;SHT31;62942;52.462;10.846;2022-08-19T06:37:11;19;87.2
74484;SHT31;62942;52.462;10.846;2022-08-19T06:38:11;18.9;87.2
74484;SHT31;62942;52.462;10.846;2022-08-19T06:39:22;18.9;87.3
74484;SHT31;62942;52.462;10.846;2022-08-19T06:40:21;19;87.2
74484;SHT31;62942;52.462;10.846;2022-08-19T06:41:21;18.9;87.2
74484;SHT31;62942;52.462;10.846;2022-08-19T06:42:31;18.9;87
74484;SHT31;62942;52.462;10.846;2022-08-19T06:43:41;18.9;87
74484;SHT31;62942;52.462;10.846;2022-08-19T06:44:42;18.9;86.9
74484;SHT31;62942;52.462;10.846;2022-08-19T06:45:41;19;87.1
74484;SHT31;62942;52.462;10.846;2022-08-19T06:46:41;18.9;87.1
74484;SHT31;62942;52.462;10.846;2022-08-19T06:47:51;18.9;86.9
74484;SHT31;62942;52.462;10.846;2022-08-19T06:49:01;18.9;87
74484;SHT31;62942;52.462;10.846;2022-08-19T06:50:01;18.9;87.3
74484;SHT31;62942;52.462;10.846;2022-08-19T06:51:01;18.9;87.1
74484;SHT31;62942;52.462;10.846;2022-08-19T06:52:11;18.9;87
74484;SHT31;62942;52.462;10.846;2022-08-19T06:53:21;18.9;87
74484;SHT31;62942;52.462;10.846;2022-08-19T06:54:31;19;87.2
74484;SHT31;62942;52.462;10.846;2022-08-19T06:55:41;19;87
74484;SHT31;62942;52.462;10.846;2022-08-19T06:56:52;18.9;86.9
74484;SHT31;62942;52.462;10.846;2022-08-19T06:58:01;19;86.9
74484;SHT31;62942;52.462;10.846;2022-08-19T06:59:12;19;86.9
74484;SHT31;62942;52.462;10.846;2022-08-19T07:00:12;18.9;87.1
74484;SHT31;62942;52.462;10.846;2022-08-19T07:01:21;18.9;86.9
74484;SHT31;62942;52.462;10.846;2022-08-19T07:02:31;18.9;87.1
74484;SHT31;62942;52.462;10.846;2022-08-19T07:03:41;18.8;87
74484;SHT31;62942;52.462;10.846;2022-08-19T07:04:41;18.8;87.2
74484;SHT31;62942;52.462;10.846;2022-08-19T07:05:51;18.8;87.2
74484;SHT31;62942;52.462;10.846;2022-08-19T07:07:03;18.8;87.2
74484;SHT31;62942;52.462;10.846;2022-08-19T07:08:11;18.8;87.3
74484;SHT31;62942;52.462;10.846;2022-08-19T07:09:12;18.8;87.4